sensor_id;sensor_type;location;lat;lon;timestamp;temperature;humidity
5705;DHT22;2877;48.238;11.160;2023-04-15T00:01:23;5.40;99.90
5705;DHT22;2877;48.238;11.160;2023-04-15T00:03:54;5.40;99.90
5705;DHT22;2877;48.238;11.160;2023-04-15T00:06:20;5.30;99.90
5705;DHT22;2877;48.238;11.160;2023-04-15T00:08:47;5.30;99.90
5705;DHT22;2877;48.238;11.160;2023-04-15T00:11:13;5.30;99.90
5705;DHT22;2877;48.238;11.160;2023-04-15T00:13:39;5.30;99.90
5705;DHT22;2877;48.238;11.160;2023-04-15T00:16:06;5.30;99.90
5705;DHT22;2877;48.238;11.160;2023-04-15T00:18:33;5.30;99.90
5705;DHT22;2877;48.238;11.160;2023-04-15T00:20:59;5.20;99.90
5705;DHT22;2877;48.238;11.160;2023-04-15T00:23:24;5.20;99.90
5705;DHT22;2877;48.238;11.160;2023-04-15T00:25:50;5.20;99.90
5705;DHT22;2877;48.238;11.160;2023-04-15T00:28:16;5.20;99.90
5705;DHT22;2877;48.238;11.160;2023-04-15T00:30:42;5.20;99.90
5705;DHT22;2877;48.238;11.160;2023-04-15T00:33:07;5.20;99.90
5705;DHT22;2877;48.238;11.160;2023-04-15T00:35:33;5.20;99.90
5705;DHT22;2877;48.238;11.160;2023-04-15T00:38:00;5.20;99.90
5705;DHT22;2877;48.238;11.160;2023-04-15T00:40:25;5.10;99.90
5705;DHT22;2877;48.238;11.160;2023-04-15T00:42:52;5.10;99.90
5705;DHT22;2877;48.238;11.160;2023-04-15T00:45:17;5.10;99.90
5705;DHT22;2877;48.238;11.160;2023-04-15T00:47:44;5.10;99.90
5705;DHT22;2877;48.238;11.160;2023-04-15T00:50:10;5.10;99.90
5705;DHT22;2877;48.238;11.160;2023-04-15T00:52:37;5.10;99.90
5705;DHT22;2877;48.238;11.160;2023-04-15T00:55:04;5.10;99.90
5705;DHT22;2877;48.238;11.160;2023-04-15T00:57:30;5.10;99.90
5705;DHT22;2877;48.238;11.160;2023-04-15T00:59:56;5.10;99.90
5705;DHT22;2877;48.238;11.160;2023-04-15T01:02:22;5.10;99.90
5705;DHT22;2877;48.238;11.160;2023-04-15T01:04:48;5.00;99.90
5705;DHT22;2877;48.238;11.160;2023-04-15T01:07:14;5.00;99.90
5705;DHT22;2877;48.238;11.160;2023-04-15T01:09:40;5.00;99.90
5705;DHT22;2877;48.238;11.160;2023-04-15T01:12:06;5.00;99.90
5705;DHT22;2877;48.238;11.160;2023-04-15T01:14:34;5.00;99.90
5705;DHT22;2877;48.238;11.160;2023-04-15T01:17:00;5.00;99.90
5705;DHT22;2877;48.238;11.160;2023-04-15T01:19:26;5.00;99.90
5705;DHT22;2877;48.238;11.160;2023-04-15T01:21:53;5.00;99.90
5705;DHT22;2877;48.238;11.160;2023-04-15T01:24:18;5.00;99.90
5705;DHT22;2877;48.238;11.160;2023-04-15T01:26:44;4.90;99.90
5705;DHT22;2877;48.238;11.160;2023-04-15T01:29:11;4.90;99.90
5705;DHT22;2877;48.238;11.160;2023-04-15T01:31:36;4.90;99.90
5705;DHT22;2877;48.238;11.160;2023-04-15T01:34:02;4.90;99.90
5705;DHT22;2877;48.238;11.160;2023-04-15T01:36:27;5.00;99.90
5705;DHT22;2877;48.238;11.160;2023-04-15T01:38:55;5.00;99.90
5705;DHT22;2877;48.238;11.160;2023-04-15T01:41:24;4.90;99.90
5705;DHT22;2877;48.238;11.160;2023-04-15T01:43:49;4.90;99.90
5705;DHT22;2877;48.238;11.160;2023-04-15T01:46:15;4.90;99.90
5705;DHT22;2877;48.238;11.160;2023-04-15T01:48:41;4.90;99.90
5705;DHT22;2877;48.238;11.160;2023-04-15T01:51:06;4.90;99.90
5705;DHT22;2877;48.238;11.160;2023-04-15T01:53:32;4.90;99.90
5705;DHT22;2877;48.238;11.160;2023-04-15T01:55:58;4.90;99.90
5705;DHT22;2877;48.238;11.160;2023-04-15T01:58:24;4.80;99.90
5705;DHT22;2877;48.238;11.160;2023-04-15T02:00:49;4.80;99.90
5705;DHT22;2877;48.238;11.160;2023-04-15T02:03:15;4.80;99.90
5705;DHT22;2877;48.238;11.160;2023-04-15T02:05:41;4.80;99.90
5705;DHT22;2877;48.238;11.160;2023-04-15T02:08:07;4.80;99.90
5705;DHT22;2877;48.238;11.160;2023-04-15T02:10:33;4.80;99.90
5705;DHT22;2877;48.238;11.160;2023-04-15T02:12:58;4.80;99.90
5705;DHT22;2877;48.238;11.160;2023-04-15T02:15:24;4.80;99.90
5705;DHT22;2877;48.238;11.160;2023-04-15T02:17:50;4.80;99.90
5705;DHT22;2877;48.238;11.160;2023-04-15T02:20:18;4.70;99.90
5705;DHT22;2877;48.238;11.160;2023-04-15T02:22:43;4.70;99.90
5705;DHT22;2877;48.238;11.160;2023-04-15T02:25:09;4.70;99.90
5705;DHT22;2877;48.238;11.160;2023-04-15T02:27:36;4.70;99.90
5705;DHT22;2877;48.238;11.160;2023-04-15T02:30:01;4.70;99.90
5705;DHT22;2877;48.238;11.160;2023-04-15T02:32:27;4.70;99.90
5705;DHT22;2877;48.238;11.160;2023-04-15T02:34:53;4.70;99.90
5705;DHT22;2877;48.238;11.160;2023-04-15T02:37:19;4.70;99.90
5705;DHT22;2877;48.238;11.160;2023-04-15T02:39:45;4.70;99.90
5705;DHT22;2877;48.238;11.160;2023-04-15T02:42:10;4.70;99.90
5705;DHT22;2877;48.238;11.160;2023-04-15T02:44:37;4.70;99.90
5705;DHT22;2877;48.238;11.160;2023-04-15T02:47:03;4.70;99.90
5705;DHT22;2877;48.238;11.160;2023-04-15T02:49:30;4.70;99.90
5705;DHT22;2877;48.238;11.160;2023-04-15T02:51:56;4.70;99.90
5705;DHT22;2877;48.238;11.160;2023-04-15T02:54:23;4.70;99.90
5705;DHT22;2877;48.238;11.160;2023-04-15T02:56:48;4.70;99.90
5705;DHT22;2877;48.238;11.160;2023-04-15T02:59:15;4.70;99.90
5705;DHT22;2877;48.238;11.160;2023-04-15T03:01:40;4.80;99.90
5705;DHT22;2877;48.238;11.160;2023-04-15T03:04:06;4.80;99.90
5705;DHT22;2877;48.238;11.160;2023-04-15T03:06:33;4.80;99.90
5705;DHT22;2877;48.238;11.160;2023-04-15T03:08:59;4.80;99.90
5705;DHT22;2877;48.238;11.160;2023-04-15T03:11:25;4.90;99.90
5705;DHT22;2877;48.238;11.160;2023-04-15T03:13:51;4.80;99.90
5705;DHT22;2877;48.238;11.160;2023-04-15T03:16:17;4.90;99.90
5705;DHT22;2877;48.238;11.160;2023-04-15T03:18:42;4.90;99.90
5705;DHT22;2877;48.238;11.160;2023-04-15T03:21:08;4.80;99.90
5705;DHT22;2877;48.238;11.160;2023-04-15T03:23:34;4.80;99.90
5705;DHT22;2877;48.238;11.160;2023-04-15T03:26:03;4.80;99.90
5705;DHT22;2877;48.238;11.160;2023-04-15T03:28:30;4.80;99.90
5705;DHT22;2877;48.238;11.160;2023-04-15T03:30:55;4.80;99.90
5705;DHT22;2877;48.238;11.160;2023-04-15T03:33:21;4.80;99.90
5705;DHT22;2877;48.238;11.160;2023-04-15T03:35:46;4.80;99.90
5705;DHT22;2877;48.238;11.160;2023-04-15T03:38:12;4.80;99.90
5705;DHT22;2877;48.238;11.160;2023-04-15T03:40:42;4.70;99.90
5705;DHT22;2877;48.238;11.160;2023-04-15T03:43:07;4.70;99.90
5705;DHT22;2877;48.238;11.160;2023-04-15T03:45:33;4.70;99.90
5705;DHT22;2877;48.238;11.160;2023-04-15T03:47:58;4.60;99.90
5705;DHT22;2877;48.238;11.160;2023-04-15T03:50:24;4.60;99.90
5705;DHT22;2877;48.238;11.160;2023-04-15T03:52:49;4.60;99.90
5705;DHT22;2877;48.238;11.160;2023-04-15T03:55:15;4.60;99.90
5705;DHT22;2877;48.238;11.160;2023-04-15T03:57:41;4.60;99.90
5705;DHT22;2877;48.238;11.160;2023-04-15T04:00:07;4.60;99.90
5705;DHT22;2877;48.238;11.160;2023-04-15T04:02:36;4.60;99.90
5705;DHT22;2877;48.238;11.160;2023-04-15T04:05:01;4.60;99.90
5705;DHT22;2877;48.238;11.160;2023-04-15T04:07:27;4.60;99.90
5705;DHT22;2877;48.238;11.160;2023-04-15T04:09:53;4.60;99.90
5705;DHT22;2877;48.238;11.160;2023-04-15T04:12:18;4.60;99.90
5705;DHT22;2877;48.238;11.160;2023-04-15T04:14:44;4.60;99.90
5705;DHT22;2877;48.238;11.160;2023-04-15T04:17:10;4.60;99.90
5705;DHT22;2877;48.238;11.160;2023-04-15T04:19:35;4.60;99.90
5705;DHT22;2877;48.238;11.160;2023-04-15T04:22:01;4.60;99.90
5705;DHT22;2877;48.238;11.160;2023-04-15T04:24:27;4.60;99.90
5705;DHT22;2877;48.238;11.160;2023-04-15T04:26:52;4.60;99.90
5705;DHT22;2877;48.238;11.160;2023-04-15T04:29:18;4.60;99.90
5705;DHT22;2877;48.238;11.160;2023-04-15T04:31:44;4.50;99.90
5705;DHT22;2877;48.238;11.160;2023-04-15T04:34:10;4.50;99.90
5705;DHT22;2877;48.238;11.160;2023-04-15T04:36:35;4.50;99.90
5705;DHT22;2877;48.238;11.160;2023-04-15T04:39:01;4.50;99.90
5705;DHT22;2877;48.238;11.160;2023-04-15T04:41:26;4.50;99.90
5705;DHT22;2877;48.238;11.160;2023-04-15T04:43:52;4.40;99.90
5705;DHT22;2877;48.238;11.160;2023-04-15T04:46:18;4.40;99.90
5705;DHT22;2877;48.238;11.160;2023-04-15T04:48:43;4.40;99.90
5705;DHT22;2877;48.238;11.160;2023-04-15T04:51:09;4.40;99.90
5705;DHT22;2877;48.238;11.160;2023-04-15T04:53:35;4.40;99.90
5705;DHT22;2877;48.238;11.160;2023-04-15T04:56:02;4.40;99.90
5705;DHT22;2877;48.238;11.160;2023-04-15T04:58:27;4.40;99.90
5705;DHT22;2877;48.238;11.160;2023-04-15T05:00:53;4.40;99.90
5705;DHT22;2877;48.238;11.160;2023-04-15T05:03:18;4.50;99.90
5705;DHT22;2877;48.238;11.160;2023-04-15T05:05:44;4.50;99.90
5705;DHT22;2877;48.238;11.160;2023-04-15T05:08:10;4.50;99.90
5705;DHT22;2877;48.238;11.160;2023-04-15T05:10:35;4.50;99.90
5705;DHT22;2877;48.238;11.160;2023-04-15T05:13:01;4.50;99.90
5705;DHT22;2877;48.238;11.160;2023-04-15T05:15:26;4.50;99.90
5705;DHT22;2877;48.238;11.160;2023-04-15T05:17:52;4.60;99.90
5705;DHT22;2877;48.238;11.160;2023-04-15T05:20:17;4.60;99.90
5705;DHT22;2877;48.238;11.160;2023-04-15T05:22:43;4.60;99.90
5705;DHT22;2877;48.238;11.160;2023-04-15T05:25:09;4.50;99.90
5705;DHT22;2877;48.238;11.160;2023-04-15T05:27:34;4.50;99.90
5705;DHT22;2877;48.238;11.160;2023-04-15T05:30:00;4.60;99.90
5705;DHT22;2877;48.238;11.160;2023-04-15T05:32:26;4.60;99.90
5705;DHT22;2877;48.238;11.160;2023-04-15T05:34:51;4.50;99.90
5705;DHT22;2877;48.238;11.160;2023-04-15T05:37:17;4.60;99.90
5705;DHT22;2877;48.238;11.160;2023-04-15T05:39:45;4.60;99.90
5705;DHT22;2877;48.238;11.160;2023-04-15T05:42:10;4.60;99.90
5705;DHT22;2877;48.238;11.160;2023-04-15T05:44:36;4.50;99.90
5705;DHT22;2877;48.238;11.160;2023-04-15T05:47:02;4.60;99.90
5705;DHT22;2877;48.238;11.160;2023-04-15T05:49:28;4.60;99.90
5705;DHT22;2877;48.238;11.160;2023-04-15T05:51:54;4.60;99.90
5705;DHT22;2877;48.238;11.160;2023-04-15T05:54:19;4.70;99.90
5705;DHT22;2877;48.238;11.160;2023-04-15T05:56:47;4.70;99.90
5705;DHT22;2877;48.238;11.160;2023-04-15T05:59:13;4.80;99.90
5705;DHT22;2877;48.238;11.160;2023-04-15T06:01:38;4.80;99.90
5705;DHT22;2877;48.238;11.160;2023-04-15T06:04:04;4.80;99.90
5705;DHT22;2877;48.238;11.160;2023-04-15T06:06:30;4.90;99.90
5705;DHT22;2877;48.238;11.160;2023-04-15T06:08:56;4.90;99.90
5705;DHT22;2877;48.238;11.160;2023-04-15T06:11:22;4.90;99.90
5705;DHT22;2877;48.238;11.160;2023-04-15T06:13:48;4.90;99.90
5705;DHT22;2877;48.238;11.160;2023-04-15T06:16:14;4.90;99.90
5705;DHT22;2877;48.238;11.160;2023-04-15T06:18:39;5.00;99.90
5705;DHT22;2877;48.238;11.160;2023-04-15T06:21:05;5.00;99.90
5705;DHT22;2877;48.238;11.160;2023-04-15T06:23:33;5.10;99.90
5705;DHT22;2877;48.238;11.160;2023-04-15T06:25:59;5.10;99.90
5705;DHT22;2877;48.238;11.160;2023-04-15T06:28:25;5.20;99.90
5705;DHT22;2877;48.238;11.160;2023-04-15T06:30:52;5.20;99.90
5705;DHT22;2877;48.238;11.160;2023-04-15T06:33:17;5.20;99.90
5705;DHT22;2877;48.238;11.160;2023-04-15T06:35:43;5.10;99.90
5705;DHT22;2877;48.238;11.160;2023-04-15T06:38:08;5.10;99.90
5705;DHT22;2877;48.238;11.160;2023-04-15T06:40:34;5.10;99.90
5705;DHT22;2877;48.238;11.160;2023-04-15T06:43:00;5.10;99.90
5705;DHT22;2877;48.238;11.160;2023-04-15T06:45:26;5.10;99.90
5705;DHT22;2877;48.238;11.160;2023-04-15T06:47:51;5.10;99.90
5705;DHT22;2877;48.238;11.160;2023-04-15T06:50:17;5.10;99.90
5705;DHT22;2877;48.238;11.160;2023-04-15T06:52:43;5.10;99.90
5705;DHT22;2877;48.238;11.160;2023-04-15T06:55:08;5.20;99.90
5705;DHT22;2877;48.238;11.160;2023-04-15T06:57:34;5.20;99.90
5705;DHT22;2877;48.238;11.160;2023-04-15T07:00:00;5.20;99.90
5705;DHT22;2877;48.238;11.160;2023-04-15T07:02:25;5.20;99.90
5705;DHT22;2877;48.238;11.160;2023-04-15T07:04:51;5.30;99.90
5705;DHT22;2877;48.238;11.160;2023-04-15T07:07:17;5.40;99.90
5705;DHT22;2877;48.238;11.160;2023-04-15T07:09:43;5.50;99.90
5705;DHT22;2877;48.238;11.160;2023-04-15T07:12:08;5.60;99.90
5705;DHT22;2877;48.238;11.160;2023-04-15T07:14:34;5.70;99.90
5705;DHT22;2877;48.238;11.160;2023-04-15T07:17:00;5.80;99.90
5705;DHT22;2877;48.238;11.160;2023-04-15T07:19:26;5.90;99.90
5705;DHT22;2877;48.238;11.160;2023-04-15T07:21:51;6.00;99.90
5705;DHT22;2877;48.238;11.160;2023-04-15T07:24:17;6.00;99.90
5705;DHT22;2877;48.238;11.160;2023-04-15T07:26:44;6.00;99.90
5705;DHT22;2877;48.238;11.160;2023-04-15T07:29:10;6.10;99.90
5705;DHT22;2877;48.238;11.160;2023-04-15T07:31:35;6.20;99.90
5705;DHT22;2877;48.238;11.160;2023-04-15T07:34:02;6.40;99.90
5705;DHT22;2877;48.238;11.160;2023-04-15T07:36:27;6.50;99.90
5705;DHT22;2877;48.238;11.160;2023-04-15T07:38:53;6.60;99.90
5705;DHT22;2877;48.238;11.160;2023-04-15T07:41:19;6.80;99.90
5705;DHT22;2877;48.238;11.160;2023-04-15T07:43:46;7.00;99.90
5705;DHT22;2877;48.238;11.160;2023-04-15T07:46:12;7.10;99.90
5705;DHT22;2877;48.238;11.160;2023-04-15T07:48:38;7.10;99.90
5705;DHT22;2877;48.238;11.160;2023-04-15T07:51:04;7.00;99.90
5705;DHT22;2877;48.238;11.160;2023-04-15T07:53:29;7.00;99.90
5705;DHT22;2877;48.238;11.160;2023-04-15T07:55:55;6.90;99.90
5705;DHT22;2877;48.238;11.160;2023-04-15T07:58:21;6.90;99.90
5705;DHT22;2877;48.238;11.160;2023-04-15T08:00:47;6.90;99.90
5705;DHT22;2877;48.238;11.160;2023-04-15T08:03:13;6.90;99.90
5705;DHT22;2877;48.238;11.160;2023-04-15T08:05:39;7.00;99.90
5705;DHT22;2877;48.238;11.160;2023-04-15T08:08:05;7.00;99.90
5705;DHT22;2877;48.238;11.160;2023-04-15T08:10:31;7.20;99.90
5705;DHT22;2877;48.238;11.160;2023-04-15T08:12:56;7.20;99.90
5705;DHT22;2877;48.238;11.160;2023-04-15T08:15:22;7.30;99.90
5705;DHT22;2877;48.238;11.160;2023-04-15T08:17:48;7.30;99.90
5705;DHT22;2877;48.238;11.160;2023-04-15T08:20:13;7.40;99.90
5705;DHT22;2877;48.238;11.160;2023-04-15T08:22:39;7.60;99.90
5705;DHT22;2877;48.238;11.160;2023-04-15T08:25:06;7.70;99.90
5705;DHT22;2877;48.238;11.160;2023-04-15T08:27:31;7.80;99.90
5705;DHT22;2877;48.238;11.160;2023-04-15T08:29:57;8.00;99.90
5705;DHT22;2877;48.238;11.160;2023-04-15T08:32:22;8.00;99.90
5705;DHT22;2877;48.238;11.160;2023-04-15T08:34:48;8.10;99.90
5705;DHT22;2877;48.238;11.160;2023-04-15T08:37:13;8.20;99.90
5705;DHT22;2877;48.238;11.160;2023-04-15T08:39:39;8.10;99.90
5705;DHT22;2877;48.238;11.160;2023-04-15T08:42:10;8.10;99.90
5705;DHT22;2877;48.238;11.160;2023-04-15T08:44:37;8.20;99.90
5705;DHT22;2877;48.238;11.160;2023-04-15T08:47:07;8.30;99.90
5705;DHT22;2877;48.238;11.160;2023-04-15T08:49:35;8.30;99.90
5705;DHT22;2877;48.238;11.160;2023-04-15T08:52:03;8.20;99.90
5705;DHT22;2877;48.238;11.160;2023-04-15T08:54:30;8.00;99.90
5705;DHT22;2877;48.238;11.160;2023-04-15T08:56:57;8.00;99.90
5705;DHT22;2877;48.238;11.160;2023-04-15T08:59:23;8.00;99.90
5705;DHT22;2877;48.238;11.160;2023-04-15T09:01:49;8.00;99.90
5705;DHT22;2877;48.238;11.160;2023-04-15T09:04:17;8.10;99.90
5705;DHT22;2877;48.238;11.160;2023-04-15T09:06:43;8.20;99.90
5705;DHT22;2877;48.238;11.160;2023-04-15T09:09:09;8.40;99.90
5705;DHT22;2877;48.238;11.160;2023-04-15T09:11:34;8.40;99.90
5705;DHT22;2877;48.238;11.160;2023-04-15T09:14:01;8.40;99.90
5705;DHT22;2877;48.238;11.160;2023-04-15T09:16:26;8.30;99.90
5705;DHT22;2877;48.238;11.160;2023-04-15T09:18:53;8.30;99.90
5705;DHT22;2877;48.238;11.160;2023-04-15T09:21:18;8.30;99.90
5705;DHT22;2877;48.238;11.160;2023-04-15T09:24:00;8.30;99.90
5705;DHT22;2877;48.238;11.160;2023-04-15T09:26:34;8.30;99.90
5705;DHT22;2877;48.238;11.160;2023-04-15T09:29:07;8.50;99.90
5705;DHT22;2877;48.238;11.160;2023-04-15T09:31:34;8.60;99.90
5705;DHT22;2877;48.238;11.160;2023-04-15T09:33:59;8.60;99.90
5705;DHT22;2877;48.238;11.160;2023-04-15T09:36:25;8.70;99.90
5705;DHT22;2877;48.238;11.160;2023-04-15T09:38:58;8.80;99.90
5705;DHT22;2877;48.238;11.160;2023-04-15T09:41:25;8.90;99.90
5705;DHT22;2877;48.238;11.160;2023-04-15T09:43:50;9.10;99.90
5705;DHT22;2877;48.238;11.160;2023-04-15T09:46:16;9.00;99.90
5705;DHT22;2877;48.238;11.160;2023-04-15T09:48:42;8.90;99.90
5705;DHT22;2877;48.238;11.160;2023-04-15T09:51:07;9.20;99.90
5705;DHT22;2877;48.238;11.160;2023-04-15T09:53:34;9.50;99.90
5705;DHT22;2877;48.238;11.160;2023-04-15T09:56:01;9.60;99.90
5705;DHT22;2877;48.238;11.160;2023-04-15T09:58:27;9.60;99.90
5705;DHT22;2877;48.238;11.160;2023-04-15T10:00:54;9.60;99.90
5705;DHT22;2877;48.238;11.160;2023-04-15T10:03:30;10.00;99.90
5705;DHT22;2877;48.238;11.160;2023-04-15T10:05:58;10.10;99.90
5705;DHT22;2877;48.238;11.160;2023-04-15T10:08:29;10.10;99.90
5705;DHT22;2877;48.238;11.160;2023-04-15T10:10:54;10.10;99.90
5705;DHT22;2877;48.238;11.160;2023-04-15T10:13:23;10.10;99.90
5705;DHT22;2877;48.238;11.160;2023-04-15T10:16:07;9.90;99.90
5705;DHT22;2877;48.238;11.160;2023-04-15T10:18:37;10.00;99.90
5705;DHT22;2877;48.238;11.160;2023-04-15T10:21:05;10.10;99.90
5705;DHT22;2877;48.238;11.160;2023-04-15T10:23:33;10.40;99.90
5705;DHT22;2877;48.238;11.160;2023-04-15T10:25:58;10.50;99.90
5705;DHT22;2877;48.238;11.160;2023-04-15T10:28:25;10.40;99.90
5705;DHT22;2877;48.238;11.160;2023-04-15T10:30:51;10.20;99.90
5705;DHT22;2877;48.238;11.160;2023-04-15T10:33:20;10.10;99.90
5705;DHT22;2877;48.238;11.160;2023-04-15T10:35:47;10.20;99.90
5705;DHT22;2877;48.238;11.160;2023-04-15T10:38:36;10.30;99.90
5705;DHT22;2877;48.238;11.160;2023-04-15T10:41:19;10.30;99.50
5705;DHT22;2877;48.238;11.160;2023-04-15T10:46:23;10.50;99.40
5705;DHT22;2877;48.238;11.160;2023-04-15T10:48:51;10.50;98.80
5705;DHT22;2877;48.238;11.160;2023-04-15T10:51:26;10.70;99.90
5705;DHT22;2877;48.238;11.160;2023-04-15T10:53:56;11.10;98.90
5705;DHT22;2877;48.238;11.160;2023-04-15T10:56:22;11.30;99.40
5705;DHT22;2877;48.238;11.160;2023-04-15T10:58:48;11.30;98.10
5705;DHT22;2877;48.238;11.160;2023-04-15T11:01:13;10.80;98.60
5705;DHT22;2877;48.238;11.160;2023-04-15T11:03:42;10.60;99.80
5705;DHT22;2877;48.238;11.160;2023-04-15T11:06:08;10.30;98.10
5705;DHT22;2877;48.238;11.160;2023-04-15T11:08:56;10.40;99.10
5705;DHT22;2877;48.238;11.160;2023-04-15T11:12:31;10.30;99.10
5705;DHT22;2877;48.238;11.160;2023-04-15T11:14:29;10.10;98.90
5705;DHT22;2877;48.238;11.160;2023-04-15T11:16:54;9.80;99.90
5705;DHT22;2877;48.238;11.160;2023-04-15T11:19:20;9.80;99.90
5705;DHT22;2877;48.238;11.160;2023-04-15T11:21:46;9.60;99.90
5705;DHT22;2877;48.238;11.160;2023-04-15T11:24:23;9.40;99.90
5705;DHT22;2877;48.238;11.160;2023-04-15T11:26:56;9.20;99.90
5705;DHT22;2877;48.238;11.160;2023-04-15T11:29:28;9.10;99.90
5705;DHT22;2877;48.238;11.160;2023-04-15T11:32:04;9.00;99.90
5705;DHT22;2877;48.238;11.160;2023-04-15T11:34:31;8.70;99.90
5705;DHT22;2877;48.238;11.160;2023-04-15T11:36:57;8.70;99.90
5705;DHT22;2877;48.238;11.160;2023-04-15T11:39:22;8.50;99.90
5705;DHT22;2877;48.238;11.160;2023-04-15T11:41:48;8.50;99.90
5705;DHT22;2877;48.238;11.160;2023-04-15T11:44:17;8.40;99.90
5705;DHT22;2877;48.238;11.160;2023-04-15T11:46:43;8.50;99.90
5705;DHT22;2877;48.238;11.160;2023-04-15T11:49:08;8.60;99.90
5705;DHT22;2877;48.238;11.160;2023-04-15T11:51:34;8.90;99.90
5705;DHT22;2877;48.238;11.160;2023-04-15T11:54:00;9.10;99.90
5705;DHT22;2877;48.238;11.160;2023-04-15T11:56:25;9.40;99.90
5705;DHT22;2877;48.238;11.160;2023-04-15T11:58:56;9.60;99.90
5705;DHT22;2877;48.238;11.160;2023-04-15T12:01:31;9.80;99.90
5705;DHT22;2877;48.238;11.160;2023-04-15T12:03:56;9.90;99.90
5705;DHT22;2877;48.238;11.160;2023-04-15T12:06:24;10.00;99.00
5705;DHT22;2877;48.238;11.160;2023-04-15T12:09:03;10.10;98.20
5705;DHT22;2877;48.238;11.160;2023-04-15T12:11:43;10.10;97.60
5705;DHT22;2877;48.238;11.160;2023-04-15T12:14:29;10.10;94.80
5705;DHT22;2877;48.238;11.160;2023-04-15T12:16:59;10.10;95.00
5705;DHT22;2877;48.238;11.160;2023-04-15T12:19:34;10.10;91.60
5705;DHT22;2877;48.238;11.160;2023-04-15T12:22:11;9.90;89.50
5705;DHT22;2877;48.238;11.160;2023-04-15T12:24:37;9.90;91.40
5705;DHT22;2877;48.238;11.160;2023-04-15T12:27:08;9.90;90.70
5705;DHT22;2877;48.238;11.160;2023-04-15T12:29:36;9.90;90.50
5705;DHT22;2877;48.238;11.160;2023-04-15T12:32:16;9.90;90.20
5705;DHT22;2877;48.238;11.160;2023-04-15T12:34:49;9.90;91.00
5705;DHT22;2877;48.238;11.160;2023-04-15T12:37:15;9.90;90.60
5705;DHT22;2877;48.238;11.160;2023-04-15T12:39:43;9.90;91.30
5705;DHT22;2877;48.238;11.160;2023-04-15T12:42:10;9.70;90.90
5705;DHT22;2877;48.238;11.160;2023-04-15T12:44:37;9.70;91.60
5705;DHT22;2877;48.238;11.160;2023-04-15T12:47:03;9.70;91.20
5705;DHT22;2877;48.238;11.160;2023-04-15T12:49:30;9.70;92.70
5705;DHT22;2877;48.238;11.160;2023-04-15T12:51:58;9.70;92.50
5705;DHT22;2877;48.238;11.160;2023-04-15T12:54:27;9.70;92.40
5705;DHT22;2877;48.238;11.160;2023-04-15T12:56:53;9.60;92.30
5705;DHT22;2877;48.238;11.160;2023-04-15T12:59:20;9.60;93.40
5705;DHT22;2877;48.238;11.160;2023-04-15T13:01:47;9.40;93.70
5705;DHT22;2877;48.238;11.160;2023-04-15T13:04:13;9.20;94.20
5705;DHT22;2877;48.238;11.160;2023-04-15T13:06:39;9.20;94.80
5705;DHT22;2877;48.238;11.160;2023-04-15T13:09:04;9.10;95.20
5705;DHT22;2877;48.238;11.160;2023-04-15T13:11:31;9.10;95.90
5705;DHT22;2877;48.238;11.160;2023-04-15T13:14:02;9.00;96.40
5705;DHT22;2877;48.238;11.160;2023-04-15T13:16:28;9.00;97.10
5705;DHT22;2877;48.238;11.160;2023-04-15T13:18:54;9.00;97.60
5705;DHT22;2877;48.238;11.160;2023-04-15T13:21:20;8.90;98.10
5705;DHT22;2877;48.238;11.160;2023-04-15T13:23:45;8.80;98.30
5705;DHT22;2877;48.238;11.160;2023-04-15T13:26:11;8.80;99.30
5705;DHT22;2877;48.238;11.160;2023-04-15T13:28:37;8.80;99.70
5705;DHT22;2877;48.238;11.160;2023-04-15T13:31:03;8.80;99.00
5705;DHT22;2877;48.238;11.160;2023-04-15T13:33:29;8.80;99.40
5705;DHT22;2877;48.238;11.160;2023-04-15T13:35:55;8.70;99.80
5705;DHT22;2877;48.238;11.160;2023-04-15T13:38:21;8.70;99.90
5705;DHT22;2877;48.238;11.160;2023-04-15T13:40:47;8.70;99.10
5705;DHT22;2877;48.238;11.160;2023-04-15T13:43:12;8.80;99.00
5705;DHT22;2877;48.238;11.160;2023-04-15T13:45:38;8.80;98.50
5705;DHT22;2877;48.238;11.160;2023-04-15T13:48:04;8.80;99.60
5705;DHT22;2877;48.238;11.160;2023-04-15T13:50:29;8.90;98.20
5705;DHT22;2877;48.238;11.160;2023-04-15T13:52:55;8.80;97.90
5705;DHT22;2877;48.238;11.160;2023-04-15T13:55:20;8.70;98.60
5705;DHT22;2877;48.238;11.160;2023-04-15T13:57:46;8.70;98.50
5705;DHT22;2877;48.238;11.160;2023-04-15T14:00:12;8.60;99.40
5705;DHT22;2877;48.238;11.160;2023-04-15T14:02:39;8.60;99.80
5705;DHT22;2877;48.238;11.160;2023-04-15T14:05:05;8.70;99.90
5705;DHT22;2877;48.238;11.160;2023-04-15T14:07:31;8.80;99.90
5705;DHT22;2877;48.238;11.160;2023-04-15T14:09:56;9.00;99.90
5705;DHT22;2877;48.238;11.160;2023-04-15T14:12:22;9.00;98.70
5705;DHT22;2877;48.238;11.160;2023-04-15T14:14:48;9.10;99.20
5705;DHT22;2877;48.238;11.160;2023-04-15T14:17:13;9.10;98.80
5705;DHT22;2877;48.238;11.160;2023-04-15T14:19:39;9.10;99.00
5705;DHT22;2877;48.238;11.160;2023-04-15T14:22:04;9.10;97.60
5705;DHT22;2877;48.238;11.160;2023-04-15T14:24:30;8.90;98.40
5705;DHT22;2877;48.238;11.160;2023-04-15T14:26:57;8.90;99.10
5705;DHT22;2877;48.238;11.160;2023-04-15T14:29:22;8.90;99.30
5705;DHT22;2877;48.238;11.160;2023-04-15T14:31:48;8.80;99.40
5705;DHT22;2877;48.238;11.160;2023-04-15T14:34:15;8.80;99.90
5705;DHT22;2877;48.238;11.160;2023-04-15T14:36:41;8.80;99.50
5705;DHT22;2877;48.238;11.160;2023-04-15T14:39:06;8.70;99.90
5705;DHT22;2877;48.238;11.160;2023-04-15T14:41:33;8.70;99.90
5705;DHT22;2877;48.238;11.160;2023-04-15T14:43:58;8.60;99.90
5705;DHT22;2877;48.238;11.160;2023-04-15T14:46:25;8.50;99.90
5705;DHT22;2877;48.238;11.160;2023-04-15T14:48:50;8.20;99.90
5705;DHT22;2877;48.238;11.160;2023-04-15T14:51:16;8.00;99.90
5705;DHT22;2877;48.238;11.160;2023-04-15T14:53:41;7.80;99.90
5705;DHT22;2877;48.238;11.160;2023-04-15T14:56:08;7.60;99.90
5705;DHT22;2877;48.238;11.160;2023-04-15T14:58:34;7.50;99.90
5705;DHT22;2877;48.238;11.160;2023-04-15T15:00:59;7.50;99.90
5705;DHT22;2877;48.238;11.160;2023-04-15T15:03:27;7.40;99.90
5705;DHT22;2877;48.238;11.160;2023-04-15T15:05:52;7.40;99.90
5705;DHT22;2877;48.238;11.160;2023-04-15T15:08:18;7.50;99.90
5705;DHT22;2877;48.238;11.160;2023-04-15T15:10:43;7.50;99.90
5705;DHT22;2877;48.238;11.160;2023-04-15T15:13:09;7.50;99.90
5705;DHT22;2877;48.238;11.160;2023-04-15T15:15:36;7.50;99.90
5705;DHT22;2877;48.238;11.160;2023-04-15T15:18:02;7.40;99.90
5705;DHT22;2877;48.238;11.160;2023-04-15T15:20:28;7.30;99.90
5705;DHT22;2877;48.238;11.160;2023-04-15T15:22:54;7.30;99.90
5705;DHT22;2877;48.238;11.160;2023-04-15T15:25:20;7.20;99.90
5705;DHT22;2877;48.238;11.160;2023-04-15T15:27:46;7.00;99.90
5705;DHT22;2877;48.238;11.160;2023-04-15T15:30:12;6.90;99.90
5705;DHT22;2877;48.238;11.160;2023-04-15T15:32:41;6.80;99.90
5705;DHT22;2877;48.238;11.160;2023-04-15T15:35:08;6.80;99.90
5705;DHT22;2877;48.238;11.160;2023-04-15T15:37:37;6.70;99.90
5705;DHT22;2877;48.238;11.160;2023-04-15T15:40:06;6.70;99.90
5705;DHT22;2877;48.238;11.160;2023-04-15T15:42:32;6.70;99.90
5705;DHT22;2877;48.238;11.160;2023-04-15T15:44:58;6.70;99.90
5705;DHT22;2877;48.238;11.160;2023-04-15T15:47:24;6.80;99.90
5705;DHT22;2877;48.238;11.160;2023-04-15T15:49:51;6.80;99.90
5705;DHT22;2877;48.238;11.160;2023-04-15T15:52:17;6.90;99.90
5705;DHT22;2877;48.238;11.160;2023-04-15T15:54:42;6.90;99.90
5705;DHT22;2877;48.238;11.160;2023-04-15T15:57:08;6.80;99.90
5705;DHT22;2877;48.238;11.160;2023-04-15T15:59:34;6.80;99.90